Impacts METAR Board
IDs:

KCVG - Cincinnati Intl, KY, US

Updated at: 1400 UTC 15 Oct 2018
Potential Impact None Slight Moderate High
Time 15/02Z 15/03Z 15/04Z 15/05Z 15/06Z 15/07Z 15/08Z 15/09Z 15/10Z 15/11Z 15/12Z 15/13Z 15/14Z
Temp54 55 56 56 57 57 57 57 57 57 58 57 56
Dewpt54 55 56 55 57 55 57 57 57 57 58 56 55
Altim29.98 29.98 29.98 29.97 29.96 29.97 29.96 29.97 29.99 29.98 30.00 30.03 30.06
VIS1.25 1.25 1.25 1.25 1.25 0.25 0.25 0.25 0.25 3 3 4 7
CIG3 3 3 2 3 2 2 2 2 5 6 8 7
CoverOVCOVCOVCOVCOVCOVXOVXOVXOVCOVCOVCOVCOVC
FltCatLIFRLIFRLIFRLIFRLIFRLIFRLIFRLIFRLIFRIFRIFRIFRIFR
WXBR-DZ-DZ-DZBRBRFGFG-RA BRBR-RA BRBR--
WDir1301400180200260270260250190260250260
WSpd4 4 0 3 4 3 4 6 6 7 7 8 11
WGst-- -- -- -- -- -- -- -- -- -- -- -- --
Raw hourly METARs
KCVG 150152Z 13004KT 1 1/4SM BR OVC003 12/12 A2998 RMK AO2 SFC VIS 2 1/2 SLP151 T01220122 $
KCVG 150252Z 14004KT 1 1/4SM -DZ OVC003 13/13 A2998 RMK AO2 SFC VIS 3 DZB36 SLP151 P0000 60000 T01280128 56004 $
KCVG 150352Z 00000KT 1 1/4SM -DZ OVC003 13/13 A2998 RMK AO2 SFC VIS 3 SLP150 P0001 T01330133 $
KCVG 150452Z 18003KT 1 1/4SM -DZ OVC002 13/13 A2997 RMK AO2 SLP148 P0000 T01330128 401330050 $
KCVG 150552Z 20004KT 1 1/4SM BR OVC003 14/14 A2996 RMK AO2 DZE48 SLP143 P0001 60002 T01390139 10139 20117 58006 $
KCVG 150652Z 26003KT 1/4SM R18C/3500V4500FT BR VV002 14/13 A2997 RMK AO2 SFC VIS 3/4 SLP146 T01390128 $
KCVG 150752Z 27004KT 1/4SM R18C/3000FT FG VV002 14/14 A2996 RMK AO2 SFC VIS 1/2 SLP144 T01390139 $
KCVG 150852Z 26006KT 1/4SM R18C/3000V3500FT FG VV002 14/14 A2997 RMK AO2 SFC VIS 1/2 SLP146 T01390139 51002 $
KCVG 150952Z 25006KT 1/4SM R18C/P6000FT -RA BR OVC002 14/14 A2999 RMK AO2 SFC VIS 5 RAB21 SLP152 P0001 T01390139 $
KCVG 151101Z 19007KT 3SM BR BKN005 OVC070 14/14 A2998 RMK AO2 SFC VIS 6 T01390139 $
KCVG 151152Z 26007KT 3SM -RA BR BKN006 OVC075 14/14 A3000 RMK AO2 SFC VIS 4 RAB08 SLP156 P0001 60003 70010 T01440144 10144 20139 53011
KCVG 151252Z 25008KT 4SM BR OVC008 14/13 A3003 RMK AO2 RAE1157 SLP165 P0000 T01390133
KCVG 151352Z 26011KT 7SM BKN007 OVC012 13/13 A3006 RMK AO2 SLP177 T01330128



Page loaded:  14:54 UTC  |   07:54 AM Pacific  |   08:54 AM Mountain  |   09:54 AM Central  |   10:54 AM Eastern

 

ADVISORIES

FORECASTS

FORECASTS

OBSERVATIONS

USER TOOLS

ABOUT US